Owensville, Indiana
Current Conditions -  °F | °C
As of 11:54 AM on Saturday 25 Oct 2014 (Local Time) from KEVV Reporting Station
Clear Clear  
Wind Chill: 72°   Ceiling: Unl
Heat Index: 72°   Visibility: 10mi
Dew Point: 59°   Wind: 5mph
Humidity: 64%   Direction: 250°WSW
Pressure: 30.02"   Gusts: NA
Location:  38.27°N, 87.69°W
Report Text: KEVV 251654Z 25004KT 10SM CLR 22/15 A3002 RMK AO2 SLP162 T02220150
Loading
Personal Weather Stations






























Interactive Weather Map
Tropical Storm Tracking
New forecast layout! Learn more

10-Day Weather Forecast

Advertisements
Track Severe Weather on mobile